KDBN/DBN METAR and TAF weather

Enter ICAO airport designator
Station Type Date Time Source
KDBN METAR 2022/06/28 15:30 UTC NOAA

KDBN 281530Z AUTO 04003KT 10SM -RA BKN075 OVC085 26/22 A3017 RMK AO2


Station Type Date Time Source
KDBN Decoded METAR 2022/06/28 15:30 UTC NOAA

Dublin, W H 'Bud' Barron Airport, GA, United States (KDBN) 32-33-52N 082-59-06W
Jun 28, 2022 - 11:30 AM EDT / 2022.06.28 1530 UTC
Wind: from the NE (040 degrees) at 3 MPH (3 KT):0
Visibility: 10 mile(s):0
Sky conditions: overcast
Weather: light rain
Temperature: 78 F (26 C)
Dew Point: 71 F (22 C)
Relative Humidity: 78%
Pressure (altimeter): 30.17 in. Hg (1021 hPa)
ob: KDBN 281530Z AUTO 04003KT 10SM -RA BKN075 OVC085 26/22 A3017 RMK AO2
cycle: 15

Station Type Date Time Source
KDBN TAF UTC NOAA

Error!

Example: see airport list